sensor_id;sensor_type;location;lat;lon;timestamp;pressure;altitude;pressure_sealevel;temperature;humidity
6208;BME280;3137;51.550;7.060;2024-01-07T00:00:18;101302.34;;;1.87;96.36
6208;BME280;3137;51.550;7.060;2024-01-07T00:02:45;101306.53;;;1.91;96.40
6208;BME280;3137;51.550;7.060;2024-01-07T00:05:11;101307.81;;;1.84;96.26
6208;BME280;3137;51.550;7.060;2024-01-07T00:07:38;101306.69;;;1.88;96.39
6208;BME280;3137;51.550;7.060;2024-01-07T00:10:04;101311.03;;;1.89;96.36
6208;BME280;3137;51.550;7.060;2024-01-07T00:12:31;101316.38;;;1.88;96.10
6208;BME280;3137;51.550;7.060;2024-01-07T00:14:58;101316.38;;;1.88;96.29
6208;BME280;3137;51.550;7.060;2024-01-07T00:17:24;101320.75;;;1.89;96.06
6208;BME280;3137;51.550;7.060;2024-01-07T00:19:51;101322.63;;;1.87;95.96
6208;BME280;3137;51.550;7.060;2024-01-07T00:22:18;101323.97;;;1.78;95.81
6208;BME280;3137;51.550;7.060;2024-01-07T00:24:44;101327.75;;;1.72;95.74
6208;BME280;3137;51.550;7.060;2024-01-07T00:27:11;101317.16;;;1.74;96.17
6208;BME280;3137;51.550;7.060;2024-01-07T00:29:39;101322.31;;;1.75;96.12
6208;BME280;3137;51.550;7.060;2024-01-07T00:32:06;101321.41;;;1.76;96.11
6208;BME280;3137;51.550;7.060;2024-01-07T00:34:32;101327.34;;;1.80;95.29
6208;BME280;3137;51.550;7.060;2024-01-07T00:36:59;101327.69;;;1.74;95.50
6208;BME280;3137;51.550;7.060;2024-01-07T00:39:25;101329.78;;;1.67;95.47
6208;BME280;3137;51.550;7.060;2024-01-07T00:41:52;101328.00;;;1.68;95.43
6208;BME280;3137;51.550;7.060;2024-01-07T00:44:18;101322.28;;;1.60;95.15
6208;BME280;3137;51.550;7.060;2024-01-07T00:46:44;101329.56;;;1.55;95.22
6208;BME280;3137;51.550;7.060;2024-01-07T00:49:14;101337.84;;;1.64;94.59
6208;BME280;3137;51.550;7.060;2024-01-07T00:51:41;101335.47;;;1.60;94.69
6208;BME280;3137;51.550;7.060;2024-01-07T00:54:07;101341.59;;;1.60;94.93
6208;BME280;3137;51.550;7.060;2024-01-07T00:56:34;101337.31;;;1.58;94.83
6208;BME280;3137;51.550;7.060;2024-01-07T00:59:00;101342.34;;;1.62;94.47
6208;BME280;3137;51.550;7.060;2024-01-07T01:01:27;101347.16;;;1.54;94.48
6208;BME280;3137;51.550;7.060;2024-01-07T01:03:54;101344.69;;;1.51;94.83
6208;BME280;3137;51.550;7.060;2024-01-07T01:06:20;101345.63;;;1.50;95.06
6208;BME280;3137;51.550;7.060;2024-01-07T01:08:47;101355.97;;;1.53;94.95
6208;BME280;3137;51.550;7.060;2024-01-07T01:11:13;101360.16;;;1.57;94.66
6208;BME280;3137;51.550;7.060;2024-01-07T01:13:40;101355.84;;;1.56;94.46
6208;BME280;3137;51.550;7.060;2024-01-07T01:16:06;101359.13;;;1.44;95.01
6208;BME280;3137;51.550;7.060;2024-01-07T01:18:33;101359.94;;;1.45;95.15
6208;BME280;3137;51.550;7.060;2024-01-07T01:20:59;101364.97;;;1.49;95.25
6208;BME280;3137;51.550;7.060;2024-01-07T01:23:26;101369.72;;;1.43;95.49
6208;BME280;3137;51.550;7.060;2024-01-07T01:25:52;101374.59;;;1.50;95.29
6208;BME280;3137;51.550;7.060;2024-01-07T01:28:18;101370.19;;;1.51;95.42
6208;BME280;3137;51.550;7.060;2024-01-07T01:30:45;101380.09;;;1.46;95.67
6208;BME280;3137;51.550;7.060;2024-01-07T01:33:12;101380.72;;;1.51;95.37
6208;BME280;3137;51.550;7.060;2024-01-07T01:35:38;101385.69;;;1.40;95.42
6208;BME280;3137;51.550;7.060;2024-01-07T01:38:05;101384.84;;;1.39;95.64
6208;BME280;3137;51.550;7.060;2024-01-07T01:40:31;101392.81;;;1.37;96.01
6208;BME280;3137;51.550;7.060;2024-01-07T01:42:57;101386.00;;;1.51;95.62
6208;BME280;3137;51.550;7.060;2024-01-07T01:45:24;101395.84;;;1.47;95.74
6208;BME280;3137;51.550;7.060;2024-01-07T01:47:51;101391.50;;;1.46;95.36
6208;BME280;3137;51.550;7.060;2024-01-07T01:50:17;101397.44;;;1.50;95.82
6208;BME280;3137;51.550;7.060;2024-01-07T01:52:45;101401.16;;;1.46;95.18
6208;BME280;3137;51.550;7.060;2024-01-07T01:55:12;101404.94;;;1.40;95.82
6208;BME280;3137;51.550;7.060;2024-01-07T01:57:39;101401.16;;;1.46;95.55
6208;BME280;3137;51.550;7.060;2024-01-07T02:00:06;101402.94;;;1.45;95.41
6208;BME280;3137;51.550;7.060;2024-01-07T02:02:33;101404.03;;;1.41;95.39
6208;BME280;3137;51.550;7.060;2024-01-07T02:05:02;101403.09;;;1.42;95.34
6208;BME280;3137;51.550;7.060;2024-01-07T02:07:31;101399.63;;;1.42;96.01
6208;BME280;3137;51.550;7.060;2024-01-07T02:09:59;101413.34;;;1.48;95.73
6208;BME280;3137;51.550;7.060;2024-01-07T02:12:25;101416.06;;;1.47;95.51
6208;BME280;3137;51.550;7.060;2024-01-07T02:14:52;101410.72;;;1.48;95.94
6208;BME280;3137;51.550;7.060;2024-01-07T02:17:19;101409.75;;;1.49;95.61
6208;BME280;3137;51.550;7.060;2024-01-07T02:19:46;101408.91;;;1.49;95.89
6208;BME280;3137;51.550;7.060;2024-01-07T02:22:13;101411.25;;;1.55;95.93
6208;BME280;3137;51.550;7.060;2024-01-07T02:24:39;101423.66;;;1.53;95.74
6208;BME280;3137;51.550;7.060;2024-01-07T02:27:06;101426.03;;;1.57;95.56
6208;BME280;3137;51.550;7.060;2024-01-07T02:29:32;101423.56;;;1.54;95.59
6208;BME280;3137;51.550;7.060;2024-01-07T02:31:59;101426.31;;;1.53;95.32
6208;BME280;3137;51.550;7.060;2024-01-07T02:34:25;101438.75;;;1.49;95.16
6208;BME280;3137;51.550;7.060;2024-01-07T02:36:52;101439.53;;;1.51;95.16
6208;BME280;3137;51.550;7.060;2024-01-07T02:39:18;101435.88;;;1.54;94.85
6208;BME280;3137;51.550;7.060;2024-01-07T02:41:45;101442.84;;;1.37;94.42
6208;BME280;3137;51.550;7.060;2024-01-07T02:44:12;101439.13;;;1.42;94.57
6208;BME280;3137;51.550;7.060;2024-01-07T02:46:39;101437.53;;;1.39;94.35
6208;BME280;3137;51.550;7.060;2024-01-07T02:49:05;101437.28;;;1.26;94.17
6208;BME280;3137;51.550;7.060;2024-01-07T02:51:32;101440.81;;;1.25;94.75
6208;BME280;3137;51.550;7.060;2024-01-07T02:53:58;101439.69;;;1.31;94.32
6208;BME280;3137;51.550;7.060;2024-01-07T02:56:25;101449.88;;;1.20;94.29
6208;BME280;3137;51.550;7.060;2024-01-07T02:58:52;101447.38;;;1.17;94.54
6208;BME280;3137;51.550;7.060;2024-01-07T03:01:22;101452.59;;;1.18;94.55
6208;BME280;3137;51.550;7.060;2024-01-07T03:03:49;101457.66;;;1.23;94.33
6208;BME280;3137;51.550;7.060;2024-01-07T03:06:16;101457.38;;;1.27;94.39
6208;BME280;3137;51.550;7.060;2024-01-07T03:08:42;101459.25;;;1.25;94.20
6208;BME280;3137;51.550;7.060;2024-01-07T03:11:09;101455.84;;;1.23;94.45
6208;BME280;3137;51.550;7.060;2024-01-07T03:13:35;101463.72;;;1.23;94.19
6208;BME280;3137;51.550;7.060;2024-01-07T03:16:02;101467.22;;;1.24;93.83
6208;BME280;3137;51.550;7.060;2024-01-07T03:18:29;101469.25;;;1.19;93.96
6208;BME280;3137;51.550;7.060;2024-01-07T03:20:56;101480.97;;;1.12;94.02
6208;BME280;3137;51.550;7.060;2024-01-07T03:23:23;101480.81;;;1.15;93.72
6208;BME280;3137;51.550;7.060;2024-01-07T03:25:49;101487.81;;;1.16;93.20
6208;BME280;3137;51.550;7.060;2024-01-07T03:28:16;101480.91;;;1.13;93.25
6208;BME280;3137;51.550;7.060;2024-01-07T03:30:42;101487.97;;;1.13;93.35
6208;BME280;3137;51.550;7.060;2024-01-07T03:33:09;101484.53;;;1.11;93.20
6208;BME280;3137;51.550;7.060;2024-01-07T03:35:35;101487.03;;;1.14;93.31
6208;BME280;3137;51.550;7.060;2024-01-07T03:38:02;101494.00;;;1.15;93.12
6208;BME280;3137;51.550;7.060;2024-01-07T03:40:29;101492.81;;;1.03;93.29
6208;BME280;3137;51.550;7.060;2024-01-07T03:42:55;101499.72;;;1.06;93.40
6208;BME280;3137;51.550;7.060;2024-01-07T03:45:22;101504.63;;;1.13;93.70
6208;BME280;3137;51.550;7.060;2024-01-07T03:47:49;101502.34;;;1.06;93.51
6208;BME280;3137;51.550;7.060;2024-01-07T03:50:15;101505.97;;;1.03;93.37
6208;BME280;3137;51.550;7.060;2024-01-07T03:52:42;101499.03;;;1.19;92.79
6208;BME280;3137;51.550;7.060;2024-01-07T03:55:08;101499.41;;;1.12;92.76
6208;BME280;3137;51.550;7.060;2024-01-07T03:57:35;101500.78;;;1.02;92.66
6208;BME280;3137;51.550;7.060;2024-01-07T04:00:02;101501.34;;;1.08;92.18
6208;BME280;3137;51.550;7.060;2024-01-07T04:02:29;101505.31;;;0.98;92.52
6208;BME280;3137;51.550;7.060;2024-01-07T04:04:56;101505.41;;;0.97;92.22
6208;BME280;3137;51.550;7.060;2024-01-07T04:07:22;101514.38;;;0.93;92.38
6208;BME280;3137;51.550;7.060;2024-01-07T04:09:49;101513.72;;;0.87;92.12
6208;BME280;3137;51.550;7.060;2024-01-07T04:12:16;101512.50;;;0.95;92.00
6208;BME280;3137;51.550;7.060;2024-01-07T04:14:43;101502.41;;;0.85;92.05
6208;BME280;3137;51.550;7.060;2024-01-07T04:17:09;101516.78;;;0.78;92.42
6208;BME280;3137;51.550;7.060;2024-01-07T04:19:37;101518.09;;;0.88;92.17
6208;BME280;3137;51.550;7.060;2024-01-07T04:22:04;101519.00;;;0.87;91.85
6208;BME280;3137;51.550;7.060;2024-01-07T04:24:31;101521.78;;;0.84;91.47
6208;BME280;3137;51.550;7.060;2024-01-07T04:26:58;101533.06;;;0.86;91.70
6208;BME280;3137;51.550;7.060;2024-01-07T04:29:24;101529.59;;;0.86;91.95
6208;BME280;3137;51.550;7.060;2024-01-07T04:31:50;101526.03;;;0.87;91.46
6208;BME280;3137;51.550;7.060;2024-01-07T04:34:17;101533.22;;;0.83;91.41
6208;BME280;3137;51.550;7.060;2024-01-07T04:36:44;101532.56;;;0.78;91.55
6208;BME280;3137;51.550;7.060;2024-01-07T04:39:10;101538.50;;;0.83;91.18
6208;BME280;3137;51.550;7.060;2024-01-07T04:41:37;101533.38;;;0.80;91.82
6208;BME280;3137;51.550;7.060;2024-01-07T04:44:03;101545.94;;;0.74;91.51
6208;BME280;3137;51.550;7.060;2024-01-07T04:46:33;101543.16;;;0.77;91.53
6208;BME280;3137;51.550;7.060;2024-01-07T04:49:00;101547.84;;;0.70;91.40
6208;BME280;3137;51.550;7.060;2024-01-07T04:51:27;101556.53;;;0.72;91.31
6208;BME280;3137;51.550;7.060;2024-01-07T04:53:53;101546.00;;;0.72;91.69
6208;BME280;3137;51.550;7.060;2024-01-07T04:56:20;101546.66;;;0.77;91.30
6208;BME280;3137;51.550;7.060;2024-01-07T04:58:47;101544.88;;;0.78;91.73
6208;BME280;3137;51.550;7.060;2024-01-07T05:01:13;101551.50;;;0.86;91.33
6208;BME280;3137;51.550;7.060;2024-01-07T05:03:40;101553.44;;;0.83;91.60
6208;BME280;3137;51.550;7.060;2024-01-07T05:06:10;101556.31;;;0.77;91.41
6208;BME280;3137;51.550;7.060;2024-01-07T05:08:37;101561.66;;;0.75;91.54
6208;BME280;3137;51.550;7.060;2024-01-07T05:11:04;101564.16;;;0.78;91.72
6208;BME280;3137;51.550;7.060;2024-01-07T05:13:30;101563.38;;;0.76;91.52
6208;BME280;3137;51.550;7.060;2024-01-07T05:15:57;101570.53;;;0.73;91.33
6208;BME280;3137;51.550;7.060;2024-01-07T05:18:24;101573.56;;;0.84;91.02
6208;BME280;3137;51.550;7.060;2024-01-07T05:20:51;101574.69;;;0.78;91.24
6208;BME280;3137;51.550;7.060;2024-01-07T05:23:18;101577.25;;;0.80;91.56
6208;BME280;3137;51.550;7.060;2024-01-07T05:25:45;101580.88;;;0.77;91.07
6208;BME280;3137;51.550;7.060;2024-01-07T05:28:12;101588.53;;;0.63;91.29
6208;BME280;3137;51.550;7.060;2024-01-07T05:30:41;101583.28;;;0.63;91.37
6208;BME280;3137;51.550;7.060;2024-01-07T05:33:07;101582.97;;;0.69;91.21
6208;BME280;3137;51.550;7.060;2024-01-07T05:35:34;101588.59;;;0.62;91.22
6208;BME280;3137;51.550;7.060;2024-01-07T05:38:01;101595.63;;;0.61;91.39
6208;BME280;3137;51.550;7.060;2024-01-07T05:40:27;101601.81;;;0.60;91.03
6208;BME280;3137;51.550;7.060;2024-01-07T05:42:54;101608.25;;;0.73;90.96
6208;BME280;3137;51.550;7.060;2024-01-07T05:45:20;101608.91;;;0.58;91.28
6208;BME280;3137;51.550;7.060;2024-01-07T05:47:47;101601.59;;;0.65;91.21
6208;BME280;3137;51.550;7.060;2024-01-07T05:50:13;101617.72;;;0.57;91.08
6208;BME280;3137;51.550;7.060;2024-01-07T05:52:42;101621.22;;;0.58;91.19
6208;BME280;3137;51.550;7.060;2024-01-07T05:55:08;101621.16;;;0.59;91.22
6208;BME280;3137;51.550;7.060;2024-01-07T05:57:35;101629.81;;;0.61;91.05
6208;BME280;3137;51.550;7.060;2024-01-07T06:00:02;101630.03;;;0.57;91.16
6208;BME280;3137;51.550;7.060;2024-01-07T06:02:38;101634.44;;;0.56;90.91
6208;BME280;3137;51.550;7.060;2024-01-07T06:05:05;101634.03;;;0.65;90.85
6208;BME280;3137;51.550;7.060;2024-01-07T06:07:32;101640.00;;;0.69;90.35
6208;BME280;3137;51.550;7.060;2024-01-07T06:09:59;101638.06;;;0.54;90.76
6208;BME280;3137;51.550;7.060;2024-01-07T06:12:26;101646.81;;;0.54;90.68
6208;BME280;3137;51.550;7.060;2024-01-07T06:14:53;101648.31;;;0.60;90.73
6208;BME280;3137;51.550;7.060;2024-01-07T06:17:19;101659.50;;;0.65;90.40
6208;BME280;3137;51.550;7.060;2024-01-07T06:19:45;101652.44;;;0.65;90.14
6208;BME280;3137;51.550;7.060;2024-01-07T06:22:12;101661.59;;;0.57;90.53
6208;BME280;3137;51.550;7.060;2024-01-07T06:24:38;101659.88;;;0.56;90.13
6208;BME280;3137;51.550;7.060;2024-01-07T06:27:05;101671.19;;;0.58;90.21
6208;BME280;3137;51.550;7.060;2024-01-07T06:29:31;101674.75;;;0.57;90.00
6208;BME280;3137;51.550;7.060;2024-01-07T06:31:57;101673.97;;;0.55;89.62
6208;BME280;3137;51.550;7.060;2024-01-07T06:34:24;101681.72;;;0.58;89.77
6208;BME280;3137;51.550;7.060;2024-01-07T06:36:51;101679.53;;;0.47;89.94
6208;BME280;3137;51.550;7.060;2024-01-07T06:39:18;101683.09;;;0.46;90.14
6208;BME280;3137;51.550;7.060;2024-01-07T06:41:44;101678.75;;;0.45;90.62
6208;BME280;3137;51.550;7.060;2024-01-07T06:44:11;101684.69;;;0.50;90.67
6208;BME280;3137;51.550;7.060;2024-01-07T06:46:38;101692.09;;;0.40;90.79
6208;BME280;3137;51.550;7.060;2024-01-07T06:49:04;101705.06;;;0.45;89.77
6208;BME280;3137;51.550;7.060;2024-01-07T06:51:31;101700.91;;;0.39;89.01
6208;BME280;3137;51.550;7.060;2024-01-07T06:53:58;101705.31;;;0.39;88.32
6208;BME280;3137;51.550;7.060;2024-01-07T06:56:24;101708.59;;;0.44;88.10
6208;BME280;3137;51.550;7.060;2024-01-07T06:58:50;101710.81;;;0.33;88.85
6208;BME280;3137;51.550;7.060;2024-01-07T07:01:20;101713.38;;;0.34;88.84
6208;BME280;3137;51.550;7.060;2024-01-07T07:03:47;101717.72;;;0.35;88.42
6208;BME280;3137;51.550;7.060;2024-01-07T07:06:13;101727.19;;;0.39;88.59
6208;BME280;3137;51.550;7.060;2024-01-07T07:08:40;101723.72;;;0.39;88.98
6208;BME280;3137;51.550;7.060;2024-01-07T07:11:06;101720.34;;;0.35;88.80
6208;BME280;3137;51.550;7.060;2024-01-07T07:13:33;101728.19;;;0.37;88.82
6208;BME280;3137;51.550;7.060;2024-01-07T07:16:00;101736.00;;;0.38;89.09
6208;BME280;3137;51.550;7.060;2024-01-07T07:18:26;101743.84;;;0.40;89.16
6208;BME280;3137;51.550;7.060;2024-01-07T07:20:53;101742.03;;;0.42;89.78
6208;BME280;3137;51.550;7.060;2024-01-07T07:23:19;101750.09;;;0.37;89.77
6208;BME280;3137;51.550;7.060;2024-01-07T07:25:46;101751.31;;;0.29;89.83
6208;BME280;3137;51.550;7.060;2024-01-07T07:28:12;101754.38;;;0.40;89.59
6208;BME280;3137;51.550;7.060;2024-01-07T07:30:38;101759.63;;;0.40;90.19
6208;BME280;3137;51.550;7.060;2024-01-07T07:33:05;101762.22;;;0.41;89.97
6208;BME280;3137;51.550;7.060;2024-01-07T07:35:32;101759.63;;;0.40;88.75
6208;BME280;3137;51.550;7.060;2024-01-07T07:37:58;101770.63;;;0.50;89.08
6208;BME280;3137;51.550;7.060;2024-01-07T07:40:25;101772.72;;;0.41;88.77
6208;BME280;3137;51.550;7.060;2024-01-07T07:42:51;101777.53;;;0.30;88.79
6208;BME280;3137;51.550;7.060;2024-01-07T07:45:18;101786.78;;;0.19;88.40
6208;BME280;3137;51.550;7.060;2024-01-07T07:47:44;101796.25;;;0.23;88.75
6208;BME280;3137;51.550;7.060;2024-01-07T07:50:12;101802.41;;;0.22;88.62
6208;BME280;3137;51.550;7.060;2024-01-07T07:52:39;101808.66;;;0.19;88.24
6208;BME280;3137;51.550;7.060;2024-01-07T07:55:05;101815.69;;;0.19;88.50
6208;BME280;3137;51.550;7.060;2024-01-07T07:57:33;101816.91;;;0.10;88.44
6208;BME280;3137;51.550;7.060;2024-01-07T07:59:59;101822.28;;;0.07;89.45
6208;BME280;3137;51.550;7.060;2024-01-07T08:02:30;101829.09;;;0.13;89.14
6208;BME280;3137;51.550;7.060;2024-01-07T08:04:57;101830.19;;;0.07;89.37
6208;BME280;3137;51.550;7.060;2024-01-07T08:07:23;101836.97;;;0.13;89.42
6208;BME280;3137;51.550;7.060;2024-01-07T08:09:50;101837.94;;;0.10;88.76
6208;BME280;3137;51.550;7.060;2024-01-07T08:12:16;101841.31;;;0.14;88.61
6208;BME280;3137;51.550;7.060;2024-01-07T08:14:43;101840.69;;;0.07;88.67
6208;BME280;3137;51.550;7.060;2024-01-07T08:17:09;101846.97;;;0.03;87.42
6208;BME280;3137;51.550;7.060;2024-01-07T08:19:36;101845.03;;;0.08;87.67
6208;BME280;3137;51.550;7.060;2024-01-07T08:22:02;101853.97;;;0.04;87.07
6208;BME280;3137;51.550;7.060;2024-01-07T08:24:29;101862.75;;;0.03;87.08
6208;BME280;3137;51.550;7.060;2024-01-07T08:26:56;101861.44;;;0.15;86.64
6208;BME280;3137;51.550;7.060;2024-01-07T08:29:22;101857.16;;;0.12;87.03
6208;BME280;3137;51.550;7.060;2024-01-07T08:31:49;101855.47;;;0.10;86.64
6208;BME280;3137;51.550;7.060;2024-01-07T08:34:15;101862.47;;;0.11;87.41
6208;BME280;3137;51.550;7.060;2024-01-07T08:36:42;101871.91;;;0.16;86.89
6208;BME280;3137;51.550;7.060;2024-01-07T08:39:09;101872.69;;;0.18;86.67
6208;BME280;3137;51.550;7.060;2024-01-07T08:41:35;101866.81;;;0.12;87.21
6208;BME280;3137;51.550;7.060;2024-01-07T08:44:01;101873.78;;;0.13;86.52
6208;BME280;3137;51.550;7.060;2024-01-07T08:46:28;101873.03;;;0.09;86.64
6208;BME280;3137;51.550;7.060;2024-01-07T08:48:54;101880.00;;;0.10;86.75
6208;BME280;3137;51.550;7.060;2024-01-07T08:51:21;101892.19;;;0.13;86.30
6208;BME280;3137;51.550;7.060;2024-01-07T08:53:48;101895.47;;;0.18;86.36
6208;BME280;3137;51.550;7.060;2024-01-07T08:56:15;101903.28;;;0.21;85.95
6208;BME280;3137;51.550;7.060;2024-01-07T08:58:41;101904.31;;;0.17;86.24
6208;BME280;3137;51.550;7.060;2024-01-07T09:01:08;101906.56;;;0.26;85.95
6208;BME280;3137;51.550;7.060;2024-01-07T09:03:35;101911.94;;;0.23;85.79
6208;BME280;3137;51.550;7.060;2024-01-07T09:06:01;101909.50;;;0.18;85.70
6208;BME280;3137;51.550;7.060;2024-01-07T09:08:28;101909.91;;;0.08;85.80
6208;BME280;3137;51.550;7.060;2024-01-07T09:10:55;101914.22;;;0.09;85.86
6208;BME280;3137;51.550;7.060;2024-01-07T09:13:21;101918.81;;;0.04;85.49
6208;BME280;3137;51.550;7.060;2024-01-07T09:15:48;101913.59;;;0.02;86.10
6208;BME280;3137;51.550;7.060;2024-01-07T09:18:14;101924.28;;;-0.03;86.06
6208;BME280;3137;51.550;7.060;2024-01-07T09:20:41;101927.81;;;-0.04;86.32
6208;BME280;3137;51.550;7.060;2024-01-07T09:23:08;101926.22;;;-0.08;86.52
6208;BME280;3137;51.550;7.060;2024-01-07T09:25:34;101926.03;;;-0.03;86.25
6208;BME280;3137;51.550;7.060;2024-01-07T09:28:00;101946.44;;;-0.10;86.60
6208;BME280;3137;51.550;7.060;2024-01-07T09:30:27;101949.13;;;-0.11;86.85
6208;BME280;3137;51.550;7.060;2024-01-07T09:32:54;101945.63;;;-0.12;87.07
6208;BME280;3137;51.550;7.060;2024-01-07T09:35:20;101948.75;;;-0.01;86.42
6208;BME280;3137;51.550;7.060;2024-01-07T09:37:47;101955.97;;;-0.07;86.11
6208;BME280;3137;51.550;7.060;2024-01-07T09:40:17;101949.63;;;0.00;85.84
6208;BME280;3137;51.550;7.060;2024-01-07T09:42:45;101959.59;;;-0.10;86.22
6208;BME280;3137;51.550;7.060;2024-01-07T09:45:13;101964.56;;;-0.02;86.17
6208;BME280;3137;51.550;7.060;2024-01-07T09:47:41;101961.25;;;-0.07;85.95
6208;BME280;3137;51.550;7.060;2024-01-07T09:50:10;101971.00;;;-0.11;85.46
6208;BME280;3137;51.550;7.060;2024-01-07T09:52:43;101958.03;;;-0.15;85.70
6208;BME280;3137;51.550;7.060;2024-01-07T09:55:14;101968.66;;;-0.18;85.50
6208;BME280;3137;51.550;7.060;2024-01-07T09:57:45;101962.22;;;-0.10;85.06
6208;BME280;3137;51.550;7.060;2024-01-07T10:00:13;101964.84;;;-0.10;85.12
6208;BME280;3137;51.550;7.060;2024-01-07T10:02:40;101981.31;;;-0.05;84.99
6208;BME280;3137;51.550;7.060;2024-01-07T10:05:09;101975.34;;;-0.10;85.12
6208;BME280;3137;51.550;7.060;2024-01-07T10:07:36;101977.88;;;-0.07;84.77
6208;BME280;3137;51.550;7.060;2024-01-07T10:10:15;101974.44;;;-0.09;83.69
6208;BME280;3137;51.550;7.060;2024-01-07T10:12:44;101980.53;;;-0.08;83.38
6208;BME280;3137;51.550;7.060;2024-01-07T10:15:11;101977.88;;;-0.07;83.04
6208;BME280;3137;51.550;7.060;2024-01-07T10:17:37;101978.56;;;-0.02;83.34
6208;BME280;3137;51.550;7.060;2024-01-07T10:20:06;101983.78;;;0.00;84.08
6208;BME280;3137;51.550;7.060;2024-01-07T10:22:39;101980.34;;;-0.02;83.04
6208;BME280;3137;51.550;7.060;2024-01-07T10:25:06;101984.16;;;-0.11;83.00
6208;BME280;3137;51.550;7.060;2024-01-07T10:27:36;101992.06;;;-0.12;83.19
6208;BME280;3137;51.550;7.060;2024-01-07T10:30:03;101983.09;;;-0.05;82.10
6208;BME280;3137;51.550;7.060;2024-01-07T10:32:30;101994.38;;;-0.03;82.08
6208;BME280;3137;51.550;7.060;2024-01-07T10:35:02;101995.41;;;-0.07;81.58
6208;BME280;3137;51.550;7.060;2024-01-07T10:37:30;101996.16;;;-0.04;81.70
6208;BME280;3137;51.550;7.060;2024-01-07T10:39:58;101989.44;;;-0.12;80.63
6208;BME280;3137;51.550;7.060;2024-01-07T10:42:32;101983.25;;;-0.10;81.49
6208;BME280;3137;51.550;7.060;2024-01-07T10:45:00;101996.13;;;-0.02;80.52
6208;BME280;3137;51.550;7.060;2024-01-07T10:47:29;101990.91;;;-0.04;80.93
6208;BME280;3137;51.550;7.060;2024-01-07T10:49:58;101994.78;;;-0.14;80.62
6208;BME280;3137;51.550;7.060;2024-01-07T10:52:27;101993.00;;;-0.13;80.98
6208;BME280;3137;51.550;7.060;2024-01-07T10:54:56;101995.47;;;-0.09;81.33
6208;BME280;3137;51.550;7.060;2024-01-07T10:59:57;101999.81;;;-0.08;79.82
6208;BME280;3137;51.550;7.060;2024-01-07T11:02:25;101999.09;;;-0.13;80.43
6208;BME280;3137;51.550;7.060;2024-01-07T11:05:11;102006.06;;;-0.12;79.98
6208;BME280;3137;51.550;7.060;2024-01-07T11:07:46;102005.13;;;-0.09;78.93
6208;BME280;3137;51.550;7.060;2024-01-07T11:10:20;102009.78;;;-0.17;78.96
6208;BME280;3137;51.550;7.060;2024-01-07T11:12:54;102009.53;;;-0.10;78.92
6208;BME280;3137;51.550;7.060;2024-01-07T11:15:50;102010.38;;;-0.09;78.06
6208;BME280;3137;51.550;7.060;2024-01-07T11:18:21;102014.88;;;-0.13;78.11
6208;BME280;3137;51.550;7.060;2024-01-07T11:20:49;102018.44;;;-0.14;78.44
6208;BME280;3137;51.550;7.060;2024-01-07T11:25:57;102026.19;;;-0.11;77.37
6208;BME280;3137;51.550;7.060;2024-01-07T11:31:13;102020.38;;;-0.20;78.01
6208;BME280;3137;51.550;7.060;2024-01-07T11:33:42;102015.06;;;-0.17;78.65
6208;BME280;3137;51.550;7.060;2024-01-07T11:36:11;102016.69;;;-0.15;78.38
6208;BME280;3137;51.550;7.060;2024-01-07T11:38:41;102025.00;;;-0.01;76.61
6208;BME280;3137;51.550;7.060;2024-01-07T11:41:09;102030.81;;;-0.17;76.31
6208;BME280;3137;51.550;7.060;2024-01-07T11:43:36;102031.75;;;-0.20;76.86
6208;BME280;3137;51.550;7.060;2024-01-07T11:46:02;102032.91;;;-0.28;74.66
6208;BME280;3137;51.550;7.060;2024-01-07T11:48:29;102032.00;;;-0.54;73.11
6208;BME280;3137;51.550;7.060;2024-01-07T11:50:56;102031.34;;;-0.60;72.94
6208;BME280;3137;51.550;7.060;2024-01-07T11:53:22;102044.06;;;-0.74;73.83
6208;BME280;3137;51.550;7.060;2024-01-07T11:55:48;102042.16;;;-0.69;73.89
6208;BME280;3137;51.550;7.060;2024-01-07T11:58:15;102050.88;;;-0.69;73.54
6208;BME280;3137;51.550;7.060;2024-01-07T12:00:42;102055.72;;;-0.84;73.82
6208;BME280;3137;51.550;7.060;2024-01-07T12:03:08;102047.69;;;-0.78;74.90
6208;BME280;3137;51.550;7.060;2024-01-07T12:05:35;102042.25;;;-0.72;74.61
6208;BME280;3137;51.550;7.060;2024-01-07T12:08:01;102048.47;;;-0.76;74.32
6208;BME280;3137;51.550;7.060;2024-01-07T12:10:29;102057.34;;;-0.80;74.40
6208;BME280;3137;51.550;7.060;2024-01-07T12:12:57;102064.28;;;-0.78;74.59
6208;BME280;3137;51.550;7.060;2024-01-07T12:15:24;102063.53;;;-0.81;74.33
6208;BME280;3137;51.550;7.060;2024-01-07T12:17:57;102066.44;;;-0.90;73.73
6208;BME280;3137;51.550;7.060;2024-01-07T12:20:25;102071.53;;;-0.86;74.25
6208;BME280;3137;51.550;7.060;2024-01-07T12:22:54;102063.91;;;-0.94;73.97
6208;BME280;3137;51.550;7.060;2024-01-07T12:25:22;102063.06;;;-0.96;73.58
6208;BME280;3137;51.550;7.060;2024-01-07T12:27:52;102070.00;;;-0.93;73.08
6208;BME280;3137;51.550;7.060;2024-01-07T12:30:20;102066.47;;;-0.92;74.05
6208;BME280;3137;51.550;7.060;2024-01-07T12:32:51;102075.09;;;-0.88;73.29
6208;BME280;3137;51.550;7.060;2024-01-07T12:35:18;102075.94;;;-0.86;73.82
6208;BME280;3137;51.550;7.060;2024-01-07T12:37:45;102077.59;;;-0.84;73.79
6208;BME280;3137;51.550;7.060;2024-01-07T12:40:11;102078.28;;;-0.77;74.43
6208;BME280;3137;51.550;7.060;2024-01-07T12:42:39;102079.09;;;-0.75;73.57
6208;BME280;3137;51.550;7.060;2024-01-07T12:45:13;102078.16;;;-0.73;73.80
6208;BME280;3137;51.550;7.060;2024-01-07T12:47:42;102089.44;;;-0.71;73.61
6208;BME280;3137;51.550;7.060;2024-01-07T12:50:09;102092.94;;;-0.70;72.63
6208;BME280;3137;51.550;7.060;2024-01-07T12:52:39;102090.16;;;-0.66;72.36
6208;BME280;3137;51.550;7.060;2024-01-07T12:55:06;102095.72;;;-0.76;72.67
6208;BME280;3137;51.550;7.060;2024-01-07T12:57:34;102099.31;;;-0.79;71.87
6208;BME280;3137;51.550;7.060;2024-01-07T13:00:03;102100.94;;;-0.75;72.27
6208;BME280;3137;51.550;7.060;2024-01-07T13:02:32;102103.72;;;-0.79;71.64
6208;BME280;3137;51.550;7.060;2024-01-07T13:05:00;102113.84;;;-0.67;72.72
6208;BME280;3137;51.550;7.060;2024-01-07T13:07:27;102117.31;;;-0.67;72.33
6208;BME280;3137;51.550;7.060;2024-01-07T13:09:53;102111.34;;;-0.72;71.92
6208;BME280;3137;51.550;7.060;2024-01-07T13:12:20;102115.91;;;-0.77;71.74
6208;BME280;3137;51.550;7.060;2024-01-07T13:14:48;102121.78;;;-0.69;72.00
6208;BME280;3137;51.550;7.060;2024-01-07T13:17:14;102124.34;;;-0.67;71.19
6208;BME280;3137;51.550;7.060;2024-01-07T13:19:41;102121.91;;;-0.73;71.60
6208;BME280;3137;51.550;7.060;2024-01-07T13:22:08;102119.28;;;-0.73;72.23
6208;BME280;3137;51.550;7.060;2024-01-07T13:24:34;102125.22;;;-0.67;72.03
6208;BME280;3137;51.550;7.060;2024-01-07T13:27:01;102134.03;;;-0.69;71.15